createdAt,value
2022-11-17T00:02:19.003Z,3.73
2022-11-17T00:04:45.859Z,3.30
2022-11-17T00:07:12.546Z,3.70
2022-11-17T00:09:39.256Z,3.20
2022-11-17T00:12:28.472Z,2.97
2022-11-17T00:14:59.148Z,3.00
2022-11-17T00:17:25.956Z,2.90
2022-11-17T00:20:11.020Z,2.40
2022-11-17T00:22:37.784Z,2.37
2022-11-17T00:25:04.648Z,2.57
2022-11-17T00:27:31.252Z,2.70
2022-11-17T00:29:57.960Z,2.40
2022-11-17T00:32:57.048Z,2.50
2022-11-17T00:35:24.072Z,2.17
2022-11-17T00:38:09.258Z,2.20
2022-11-17T00:40:36.057Z,2.77
2022-11-17T00:43:02.628Z,2.43
2022-11-17T00:45:29.277Z,2.83
2022-11-17T00:47:56.082Z,2.70
2022-11-17T00:50:24.167Z,2.50
2022-11-17T00:52:50.808Z,3.00
2022-11-17T00:55:17.447Z,3.17
2022-11-17T00:57:44.131Z,2.90
2022-11-17T01:00:11.147Z,2.90
2022-11-17T01:02:37.996Z,2.87
2022-11-17T01:05:04.957Z,2.70
2022-11-17T01:07:31.584Z,2.63
2022-11-17T01:09:58.237Z,2.73
2022-11-17T01:12:24.831Z,2.80
2022-11-17T01:14:51.473Z,2.57
2022-11-17T01:17:18.080Z,2.60
2022-11-17T01:19:44.660Z,2.80
2022-11-17T01:22:11.256Z,2.50
2022-11-17T01:24:38.025Z,2.53
2022-11-17T01:27:04.617Z,2.87
2022-11-17T01:29:31.234Z,2.47
2022-11-17T01:31:58.094Z,2.30
2022-11-17T01:34:24.698Z,2.77
2022-11-17T01:37:09.908Z,2.90
2022-11-17T01:39:36.607Z,2.77
2022-11-17T01:42:11.573Z,2.70
2022-11-17T01:44:44.638Z,3.10
2022-11-17T01:47:35.036Z,3.63
2022-11-17T01:50:22.004Z,2.83
2022-11-17T01:52:52.458Z,2.80
2022-11-17T01:55:21.300Z,3.00
2022-11-17T01:57:54.971Z,2.80
2022-11-17T02:00:21.741Z,2.43
2022-11-17T02:02:48.982Z,2.37
2022-11-17T02:05:37.113Z,2.30
2022-11-17T02:08:06.445Z,1.90
2022-11-17T02:10:35.245Z,2.57
2022-11-17T02:13:02.601Z,2.20
2022-11-17T02:15:30.254Z,1.93
2022-11-17T02:17:58.468Z,1.90
2022-11-17T02:20:48.780Z,1.70
2022-11-17T02:23:28.599Z,1.60
2022-11-17T02:27:12.409Z,1.83
2022-11-17T02:30:00.438Z,1.73
2022-11-17T02:32:31.170Z,1.80
2022-11-17T02:35:03.549Z,1.87
2022-11-17T02:37:30.109Z,1.80
2022-11-17T02:40:07.580Z,1.77
2022-11-17T02:42:59.194Z,2.20
2022-11-17T02:45:31.864Z,1.97
2022-11-17T02:48:00.592Z,1.90
2022-11-17T02:50:29.798Z,1.80
2022-11-17T02:52:57.117Z,2.00
2022-11-17T02:55:23.710Z,1.90
2022-11-17T02:57:50.254Z,1.93
2022-11-17T03:00:19.039Z,1.90
2022-11-17T03:03:13.274Z,1.90
2022-11-17T03:06:11.854Z,1.90
2022-11-17T03:08:52.518Z,2.20
2022-11-17T03:11:27.272Z,2.00
2022-11-17T03:14:01.190Z,2.00
2022-11-17T03:16:37.569Z,1.80
2022-11-17T03:19:19.235Z,2.17
2022-11-17T03:21:55.056Z,2.10
2022-11-17T03:24:28.756Z,1.77
2022-11-17T03:27:18.069Z,1.50
2022-11-17T03:29:49.359Z,1.50
2022-11-17T03:32:18.064Z,1.73
2022-11-17T03:34:50.836Z,1.80
2022-11-17T03:37:21.299Z,2.00
2022-11-17T03:39:52.692Z,2.00
2022-11-17T03:42:27.852Z,2.10
2022-11-17T03:45:03.711Z,1.90
2022-11-17T03:47:33.510Z,1.87
2022-11-17T03:50:09.080Z,1.93
2022-11-17T03:52:38.189Z,1.70
2022-11-17T03:55:06.836Z,1.80
2022-11-17T03:57:50.324Z,2.20
2022-11-17T04:00:18.957Z,1.50
2022-11-17T04:02:48.130Z,1.90
2022-11-17T04:05:17.444Z,1.90
2022-11-17T04:07:46.756Z,1.60
2022-11-17T04:10:16.495Z,1.80
2022-11-17T04:13:01.775Z,1.60
2022-11-17T04:15:47.085Z,1.80
2022-11-17T04:18:14.758Z,1.60
2022-11-17T04:20:41.720Z,1.67
2022-11-17T04:23:12.181Z,1.87
2022-11-17T04:26:05.991Z,1.73
2022-11-17T04:28:37.473Z,1.60
2022-11-17T04:31:14.425Z,1.60
2022-11-17T04:33:52.315Z,1.40
2022-11-17T04:36:22.381Z,1.70
2022-11-17T04:38:51.264Z,1.67
2022-11-17T04:41:38.160Z,1.30
2022-11-17T04:44:07.031Z,1.30
2022-11-17T04:46:35.689Z,1.40
2022-11-17T04:49:03.352Z,1.20
2022-11-17T04:51:31.447Z,1.30
2022-11-17T04:53:58.700Z,1.20
2022-11-17T04:56:26.701Z,1.10
2022-11-17T04:58:53.820Z,1.00
2022-11-17T05:01:22.374Z,1.37
2022-11-17T05:04:06.424Z,1.30
2022-11-17T05:06:40.481Z,1.33
2022-11-17T05:09:11.068Z,1.00
2022-11-17T05:11:56.263Z,1.33
2022-11-17T05:14:25.028Z,0.97
2022-11-17T05:17:11.002Z,0.90
2022-11-17T05:19:41.531Z,1.00
2022-11-17T05:22:28.491Z,0.80
2022-11-17T05:24:55.730Z,0.90
2022-11-17T05:27:24.012Z,1.00
2022-11-17T05:29:50.879Z,0.80
2022-11-17T05:32:18.255Z,1.00
2022-11-17T05:34:44.893Z,1.00
2022-11-17T05:37:11.564Z,0.90
2022-11-17T05:39:38.180Z,1.00
2022-11-17T05:42:05.004Z,0.90
2022-11-17T05:44:31.595Z,1.00
2022-11-17T05:46:58.673Z,1.03
2022-11-17T05:49:25.257Z,1.00
2022-11-17T05:51:53.129Z,0.93
2022-11-17T05:54:20.618Z,0.90
2022-11-17T05:56:52.606Z,1.10
2022-11-17T05:59:46.858Z,0.93
2022-11-17T06:02:24.058Z,1.20
2022-11-17T06:04:51.855Z,0.90
2022-11-17T06:07:19.631Z,1.17
2022-11-17T06:09:46.869Z,1.13
2022-11-17T06:12:15.564Z,1.10
2022-11-17T06:14:42.752Z,1.00
2022-11-17T06:17:22.119Z,0.90
2022-11-17T06:19:57.841Z,0.80
2022-11-17T06:22:26.882Z,0.87
2022-11-17T06:24:54.338Z,1.00
2022-11-17T06:27:21.244Z,1.00
2022-11-17T06:29:49.470Z,1.10
2022-11-17T06:32:18.255Z,0.90
2022-11-17T06:34:51.907Z,0.87
2022-11-17T06:37:21.972Z,0.90
2022-11-17T06:39:48.528Z,1.03
2022-11-17T06:42:15.574Z,0.83
2022-11-17T06:44:42.484Z,1.00
2022-11-17T06:47:09.056Z,1.17
2022-11-17T06:49:35.621Z,1.10
2022-11-17T06:52:02.323Z,1.10
2022-11-17T06:54:28.940Z,0.90
2022-11-17T06:56:55.652Z,0.97
2022-11-17T06:59:22.702Z,1.00
2022-11-17T07:01:49.315Z,1.00
2022-11-17T07:04:15.950Z,0.80
2022-11-17T07:06:42.860Z,0.90
2022-11-17T07:09:09.610Z,0.80
2022-11-17T07:11:36.516Z,0.90
2022-11-17T07:14:03.914Z,1.03
2022-11-17T07:16:31.231Z,0.63
2022-11-17T07:18:59.398Z,0.87
2022-11-17T07:21:26.446Z,0.80
2022-11-17T07:23:53.315Z,1.00
2022-11-17T07:26:19.982Z,1.10
2022-11-17T07:28:46.815Z,1.00
2022-11-17T07:31:13.452Z,1.23
2022-11-17T07:33:40.072Z,0.63
2022-11-17T07:36:09.788Z,0.97
2022-11-17T07:38:39.186Z,0.90
2022-11-17T07:41:07.177Z,0.70
2022-11-17T07:43:35.340Z,1.10
2022-11-17T07:46:06.343Z,0.90
2022-11-17T07:48:33.738Z,0.97
2022-11-17T07:51:01.663Z,0.90
2022-11-17T07:53:29.128Z,1.00
2022-11-17T07:55:56.076Z,0.97
2022-11-17T07:58:25.749Z,1.07
2022-11-17T08:00:52.465Z,0.80
2022-11-17T08:03:19.231Z,0.90
2022-11-17T08:05:45.964Z,1.20
2022-11-17T08:08:13.723Z,0.87
2022-11-17T08:10:40.701Z,0.90
2022-11-17T08:13:07.746Z,0.70
2022-11-17T08:15:36.168Z,1.23
2022-11-17T08:18:03.485Z,1.00
2022-11-17T08:20:30.402Z,1.00
2022-11-17T08:22:57.076Z,1.00
2022-11-17T08:25:26.227Z,1.00
2022-11-17T08:27:57.955Z,0.80
2022-11-17T08:30:25.820Z,0.80
2022-11-17T08:32:53.805Z,1.13
2022-11-17T08:35:23.149Z,0.83
2022-11-17T08:37:49.817Z,1.53
2022-11-17T08:40:18.145Z,1.00
2022-11-17T08:42:45.590Z,1.17
2022-11-17T08:45:13.240Z,0.83
2022-11-17T08:47:40.395Z,1.00
2022-11-17T08:50:07.756Z,1.07
2022-11-17T08:52:34.408Z,1.20
2022-11-17T08:55:01.098Z,0.90
2022-11-17T08:57:29.912Z,1.03
2022-11-17T08:59:56.583Z,0.90
2022-11-17T09:02:23.461Z,0.93
2022-11-17T09:04:50.864Z,1.07
2022-11-17T09:07:18.392Z,1.10
2022-11-17T09:09:46.428Z,0.80
2022-11-17T09:12:13.285Z,1.10
2022-11-17T09:14:39.996Z,1.20
2022-11-17T09:17:06.818Z,1.00
2022-11-17T09:19:33.804Z,1.03
2022-11-17T09:22:00.453Z,0.90
2022-11-17T09:24:27.320Z,1.20
2022-11-17T09:26:55.201Z,1.30
2022-11-17T09:29:24.012Z,1.27
2022-11-17T09:31:50.693Z,1.13
2022-11-17T09:34:17.499Z,1.43
2022-11-17T09:36:44.171Z,1.30
2022-11-17T09:39:11.014Z,1.30
2022-11-17T09:41:51.952Z,1.20
2022-11-17T09:44:30.623Z,1.30
2022-11-17T09:47:16.856Z,1.13
2022-11-17T09:50:36.584Z,1.10
2022-11-17T09:53:39.299Z,1.23
2022-11-17T09:56:08.975Z,1.17
2022-11-17T09:58:50.615Z,0.80
2022-11-17T10:01:19.460Z,1.00
2022-11-17T10:03:48.669Z,0.90
2022-11-17T10:06:19.648Z,0.50
2022-11-17T10:09:04.778Z,0.90
2022-11-17T10:11:35.127Z,0.90
2022-11-17T10:14:15.870Z,0.77
2022-11-17T10:16:53.978Z,1.10
2022-11-17T10:19:24.406Z,1.00
2022-11-17T10:22:02.967Z,0.83
2022-11-17T10:24:38.461Z,1.20
2022-11-17T10:27:27.274Z,1.47
2022-11-17T10:30:14.996Z,0.87
2022-11-17T10:32:53.035Z,1.17
2022-11-17T10:35:26.083Z,0.83
2022-11-17T10:37:55.694Z,1.30
2022-11-17T10:40:26.111Z,0.60
2022-11-17T10:43:14.029Z,0.70
2022-11-17T10:45:49.655Z,0.80
2022-11-17T10:48:26.230Z,1.10
2022-11-17T10:51:02.823Z,0.67
2022-11-17T10:53:36.871Z,0.90
2022-11-17T10:56:11.163Z,1.00
2022-11-17T10:59:02.461Z,1.10
2022-11-17T11:01:32.285Z,1.00
2022-11-17T11:03:59.317Z,1.00
2022-11-17T11:06:29.628Z,1.33
2022-11-17T11:09:20.952Z,1.10
2022-11-17T11:11:54.251Z,1.17
2022-11-17T11:14:40.530Z,1.00
2022-11-17T11:17:15.958Z,0.80
2022-11-17T11:19:46.034Z,1.20
2022-11-17T11:22:35.768Z,1.10
2022-11-17T11:25:05.699Z,1.20
2022-11-17T11:27:46.223Z,1.20
2022-11-17T11:30:16.777Z,1.07
2022-11-17T11:32:52.417Z,1.07
2022-11-17T11:35:37.192Z,0.80
2022-11-17T11:38:06.478Z,0.80
2022-11-17T11:40:40.005Z,1.00
2022-11-17T11:43:18.700Z,1.10
2022-11-17T11:46:14.856Z,1.00
2022-11-17T11:48:41.728Z,1.53
2022-11-17T11:51:16.739Z,1.43
2022-11-17T11:54:08.752Z,0.80
2022-11-17T11:56:53.871Z,1.10
2022-11-17T11:59:20.562Z,0.97
2022-11-17T12:02:11.843Z,1.20
2022-11-17T12:04:49.125Z,1.10
2022-11-17T12:07:26.022Z,1.07
2022-11-17T12:10:24.630Z,1.00
2022-11-17T12:12:51.508Z,1.23
2022-11-17T12:15:21.200Z,0.70
2022-11-17T12:18:13.312Z,1.27
2022-11-17T12:20:40.981Z,1.00
2022-11-17T12:23:35.149Z,1.03
2022-11-17T12:26:02.843Z,1.03
2022-11-17T12:28:32.586Z,0.97
2022-11-17T12:31:06.743Z,0.90
2022-11-17T12:33:54.325Z,0.90
2022-11-17T12:36:29.668Z,1.10
2022-11-17T12:39:01.654Z,0.80
2022-11-17T12:41:50.132Z,1.07
2022-11-17T12:44:50.590Z,0.90
2022-11-17T12:47:20.277Z,0.50
2022-11-17T12:50:14.532Z,1.17
2022-11-17T12:52:53.482Z,0.83
2022-11-17T12:55:54.907Z,0.67
2022-11-17T12:58:41.691Z,0.77
2022-11-17T13:01:36.310Z,1.13
2022-11-17T13:04:19.286Z,1.07
2022-11-17T13:07:04.320Z,1.00
2022-11-17T13:09:33.543Z,1.10
2022-11-17T13:12:01.971Z,1.03
2022-11-17T13:14:28.667Z,0.90
2022-11-17T13:16:55.597Z,0.83
2022-11-17T13:19:34.945Z,0.90
2022-11-17T13:22:06.359Z,0.80
2022-11-17T13:24:37.385Z,0.90
2022-11-17T13:27:07.558Z,0.70
2022-11-17T13:29:34.386Z,0.60
2022-11-17T13:32:13.604Z,1.00
2022-11-17T13:34:51.432Z,0.90
2022-11-17T13:37:21.780Z,0.80
2022-11-17T13:40:00.836Z,0.70
2022-11-17T13:42:31.942Z,0.70
2022-11-17T13:45:01.799Z,0.90
2022-11-17T13:47:42.427Z,0.63
2022-11-17T13:50:27.017Z,1.07
2022-11-17T13:53:13.105Z,0.90
2022-11-17T13:55:47.117Z,0.87
2022-11-17T13:58:26.425Z,0.87
2022-11-17T14:00:58.656Z,0.90
2022-11-17T14:03:39.900Z,0.50
2022-11-17T14:06:11.657Z,0.80
2022-11-17T14:08:40.245Z,0.73
2022-11-17T14:11:09.941Z,0.77
2022-11-17T14:13:40.608Z,0.70
2022-11-17T14:16:20.754Z,1.00
2022-11-17T14:19:03.157Z,0.70
2022-11-17T14:21:30.655Z,0.90
2022-11-17T14:24:11.674Z,0.90
2022-11-17T14:26:44.775Z,0.70
2022-11-17T14:29:13.065Z,0.97
2022-11-17T14:31:39.704Z,0.90
2022-11-17T14:34:06.371Z,1.10
2022-11-17T14:36:33.669Z,1.00
2022-11-17T14:39:02.116Z,0.83
2022-11-17T14:41:29.197Z,1.03
2022-11-17T14:43:56.109Z,0.97
2022-11-17T14:46:27.130Z,1.07
2022-11-17T14:48:54.150Z,1.13
2022-11-17T14:51:21.449Z,1.10
2022-11-17T14:53:48.037Z,0.90
2022-11-17T14:56:19.234Z,1.00
2022-11-17T14:58:47.022Z,0.90
2022-11-17T15:01:28.522Z,1.20
2022-11-17T15:03:57.020Z,1.07
2022-11-17T15:06:24.414Z,1.20
2022-11-17T15:09:02.324Z,1.03
2022-11-17T15:11:39.141Z,0.90
2022-11-17T15:14:06.998Z,1.03
2022-11-17T15:16:33.803Z,0.97
2022-11-17T15:19:00.407Z,1.20
2022-11-17T15:21:27.155Z,1.00
2022-11-17T15:23:53.941Z,1.30
2022-11-17T15:26:23.512Z,1.60
2022-11-17T15:28:50.429Z,2.00
2022-11-17T15:31:19.996Z,1.73
2022-11-17T15:33:48.125Z,1.70
2022-11-17T15:36:19.477Z,1.70
2022-11-17T15:38:47.544Z,1.37
2022-11-17T15:41:15.103Z,1.50
2022-11-17T15:43:43.939Z,1.93
2022-11-17T15:46:13.168Z,1.90
2022-11-17T15:48:44.942Z,1.60
2022-11-17T15:51:14.577Z,1.70
2022-11-17T15:53:42.406Z,1.90
2022-11-17T15:56:12.588Z,2.00
2022-11-17T15:58:41.086Z,1.87
2022-11-17T16:01:28.902Z,2.53
2022-11-17T16:04:03.650Z,2.70
2022-11-17T16:06:31.894Z,2.50
2022-11-17T16:08:58.411Z,1.60
2022-11-17T16:11:26.968Z,2.47
2022-11-17T16:13:55.155Z,3.30
2022-11-17T16:16:23.359Z,4.10
2022-11-17T16:18:49.885Z,3.00
2022-11-17T16:21:17.484Z,2.83
2022-11-17T16:23:53.167Z,2.70
2022-11-17T16:26:21.165Z,2.10
2022-11-17T16:28:48.008Z,3.20
2022-11-17T16:31:23.308Z,2.30
2022-11-17T16:33:54.972Z,2.50
2022-11-17T16:36:23.692Z,2.70
2022-11-17T16:39:00.806Z,2.60
2022-11-17T16:41:36.179Z,3.10
2022-11-17T16:44:06.815Z,5.00
2022-11-17T16:46:33.490Z,2.60
2022-11-17T16:49:07.045Z,4.10
2022-11-17T16:51:34.117Z,3.50
2022-11-17T16:54:03.362Z,5.23
2022-11-17T16:56:30.775Z,6.23
2022-11-17T16:58:58.731Z,4.80
2022-11-17T17:01:30.564Z,3.40
2022-11-17T17:04:02.986Z,2.70
2022-11-17T17:06:29.956Z,2.40
2022-11-17T17:09:01.398Z,2.70
2022-11-17T17:11:29.347Z,2.90
2022-11-17T17:13:58.860Z,2.90
2022-11-17T17:16:26.163Z,3.17
2022-11-17T17:18:59.275Z,2.73
2022-11-17T17:21:26.986Z,2.40
2022-11-17T17:23:53.955Z,2.23
2022-11-17T17:26:22.728Z,5.60
2022-11-17T17:28:51.043Z,3.33
2022-11-17T17:31:21.719Z,2.80
2022-11-17T17:33:50.279Z,4.30
2022-11-17T17:36:22.432Z,3.80
2022-11-17T17:38:55.438Z,3.37
2022-11-17T17:41:24.706Z,2.50
2022-11-17T17:43:59.423Z,2.60
2022-11-17T17:46:29.603Z,2.70
2022-11-17T17:48:56.913Z,2.83
2022-11-17T17:51:25.191Z,2.63
2022-11-17T17:53:53.677Z,6.03
2022-11-17T17:56:21.778Z,6.67
2022-11-17T17:58:49.171Z,1.97
2022-11-17T18:01:21.425Z,1.57
2022-11-17T18:03:50.315Z,1.80
2022-11-17T18:06:19.761Z,1.60
2022-11-17T18:08:46.855Z,1.70
2022-11-17T18:11:19.578Z,1.23
2022-11-17T18:13:48.510Z,1.40
2022-11-17T18:16:21.765Z,1.40
2022-11-17T18:18:49.328Z,1.50
2022-11-17T18:21:18.384Z,1.40
2022-11-17T18:23:45.872Z,1.33
2022-11-17T18:26:18.353Z,1.13
2022-11-17T18:28:59.022Z,0.70
2022-11-17T18:31:28.613Z,1.00
2022-11-17T18:34:01.295Z,0.70
2022-11-17T18:36:28.870Z,0.80
2022-11-17T18:38:57.581Z,0.70
2022-11-17T18:41:25.301Z,0.70
2022-11-17T18:43:52.564Z,0.63
2022-11-17T18:46:21.640Z,0.50
2022-11-17T18:48:51.832Z,0.60
2022-11-17T18:51:23.598Z,0.63
2022-11-17T18:53:51.789Z,0.63
2022-11-17T18:56:24.080Z,0.70
2022-11-17T18:58:50.822Z,0.53
2022-11-17T19:01:19.091Z,0.40
2022-11-17T19:03:48.050Z,0.40
2022-11-17T19:06:16.455Z,0.30
2022-11-17T19:08:43.663Z,0.70
2022-11-17T19:11:11.902Z,0.50
2022-11-17T19:13:40.716Z,0.40
2022-11-17T19:16:16.363Z,0.60
2022-11-17T19:18:44.706Z,0.43
2022-11-17T19:21:17.335Z,0.93
2022-11-17T19:23:51.094Z,0.50
2022-11-17T19:26:21.371Z,0.50
2022-11-17T19:28:48.074Z,0.50
2022-11-17T19:31:19.572Z,0.40
2022-11-17T19:33:48.091Z,0.50
2022-11-17T19:36:16.171Z,0.60
2022-11-17T19:38:43.483Z,0.50
2022-11-17T19:41:13.350Z,0.90
2022-11-17T19:43:45.134Z,1.07
2022-11-17T19:46:15.084Z,0.90
2022-11-17T19:48:43.217Z,0.97
2022-11-17T19:51:20.067Z,0.60
2022-11-17T19:53:51.712Z,0.40
2022-11-17T19:56:19.033Z,0.40
2022-11-17T19:58:46.524Z,2.63
2022-11-17T20:01:17.268Z,2.30
2022-11-17T20:03:44.613Z,1.53
2022-11-17T20:06:13.772Z,1.20
2022-11-17T20:08:40.519Z,1.00
2022-11-17T20:11:21.990Z,1.40
2022-11-17T20:13:49.138Z,0.80
2022-11-17T20:16:19.146Z,1.00
2022-11-17T20:18:50.094Z,0.93
2022-11-17T20:21:16.910Z,0.80
2022-11-17T20:23:43.870Z,0.80
2022-11-17T20:26:23.117Z,1.00
2022-11-17T20:28:49.995Z,0.90
2022-11-17T20:31:24.375Z,1.20
2022-11-17T20:33:52.022Z,0.87
2022-11-17T20:36:20.632Z,0.80
2022-11-17T20:38:52.170Z,0.57
2022-11-17T20:41:21.109Z,1.00
2022-11-17T20:43:49.236Z,1.50
2022-11-17T20:46:15.795Z,2.47
2022-11-17T20:48:42.539Z,1.77
2022-11-17T20:51:18.110Z,2.73
2022-11-17T20:53:45.135Z,3.40
2022-11-17T20:56:13.133Z,4.17
2022-11-17T20:58:40.436Z,9.73
2022-11-17T21:01:12.662Z,7.93
2022-11-17T21:03:39.292Z,2.60
2022-11-17T21:08:47.227Z,5.07
2022-11-17T21:11:36.380Z,2.67
2022-11-17T21:14:05.531Z,1.20
2022-11-17T21:16:32.396Z,1.10
2022-11-17T21:18:59.582Z,1.40
2022-11-17T21:21:26.448Z,1.67
2022-11-17T21:23:54.335Z,1.50
2022-11-17T21:26:23.083Z,1.43
2022-11-17T21:28:50.248Z,1.30
2022-11-17T21:31:19.454Z,1.30
2022-11-17T21:33:46.618Z,1.10
2022-11-17T21:36:17.342Z,1.10
2022-11-17T21:38:45.505Z,1.20
2022-11-17T21:41:15.034Z,0.93
2022-11-17T21:43:43.099Z,1.20
2022-11-17T21:46:13.043Z,1.40
2022-11-17T21:48:40.102Z,1.50
2022-11-17T21:51:13.898Z,1.50
2022-11-17T21:53:40.672Z,1.70
2022-11-17T21:56:07.895Z,1.23
2022-11-17T21:58:34.718Z,1.47
2022-11-17T22:01:13.384Z,1.40
2022-11-17T22:03:41.717Z,2.00
2022-11-17T22:06:14.391Z,1.80
2022-11-17T22:08:43.066Z,2.10
2022-11-17T22:11:14.219Z,1.60
2022-11-17T22:13:42.019Z,1.70
2022-11-17T22:16:13.776Z,1.93
2022-11-17T22:18:41.530Z,1.50
2022-11-17T22:21:09.195Z,1.70
2022-11-17T22:23:35.946Z,1.57
2022-11-17T22:26:05.134Z,1.83
2022-11-17T22:28:31.952Z,1.50
2022-11-17T22:30:58.766Z,1.43
2022-11-17T22:33:25.460Z,1.83
2022-11-17T22:35:52.462Z,2.03
2022-11-17T22:38:19.248Z,2.13
2022-11-17T22:40:45.880Z,2.40
2022-11-17T22:43:15.412Z,2.53
2022-11-17T22:45:42.696Z,2.23
2022-11-17T22:48:09.541Z,2.13
2022-11-17T22:50:36.489Z,2.00
2022-11-17T22:53:03.202Z,2.07
2022-11-17T22:55:30.241Z,1.77
2022-11-17T22:57:56.916Z,1.80
2022-11-17T23:00:23.711Z,2.10
2022-11-17T23:02:50.440Z,1.80
2022-11-17T23:05:17.317Z,2.23
2022-11-17T23:07:44.568Z,1.70
2022-11-17T23:10:12.211Z,1.67
2022-11-17T23:12:38.991Z,1.30
2022-11-17T23:15:07.197Z,1.70
2022-11-17T23:17:34.885Z,1.90
2022-11-17T23:20:01.766Z,1.70
2022-11-17T23:22:28.460Z,1.33
2022-11-17T23:24:55.084Z,1.60
2022-11-17T23:27:21.789Z,1.57
2022-11-17T23:29:48.528Z,1.20
2022-11-17T23:32:15.112Z,1.30
2022-11-17T23:34:42.016Z,1.10
2022-11-17T23:37:08.678Z,1.17
2022-11-17T23:39:35.221Z,1.07
2022-11-17T23:42:01.987Z,1.20
2022-11-17T23:44:28.620Z,1.00
2022-11-17T23:46:55.436Z,1.10
2022-11-17T23:49:22.116Z,0.83
2022-11-17T23:51:48.734Z,1.10
2022-11-17T23:54:15.335Z,1.10
2022-11-17T23:56:41.929Z,1.20
2022-11-17T23:59:08.780Z,1.27
